»·PEaware :: N420MD KAPC-KRNO

N420MD :: KAPC-KRNO

FLIGHT INFORMATION

Flight Status: Arrived
Operator: Privately registered:
United States
More flights under this callsign
Pilot: Anonymous 1753 (1753)
Aircraft: CANADAIR CL-600 CHALLENGER
(CL60)
More flights by this aircraft type
Origin: KAPC Napa Co
United States
Destination: KRNO Reno/Tahoe Intl
United States
More flights between these airports :: More routes between these airports
Route: NAPAA4 SGD ORRCA ORRCA1
File this flight plan on PilotEdge
Remarks: RMK / SIMBRIEF
Altitude:
(Current/Filed)
27,000ft
Speed:
(Current/Filed)
442kts
Departed: 18-Nov-23 12:20 PM
Arrived: 18-Nov-23 01:01 PM
Distance/Time
Traveled:
140nm/0:41
Distance/Time
To Go:
Arrived

Flight Plot

Page will automatically refresh every two minutes.

Flight plan parsing failed; only flown route is shown


Map Options




Map Legend


Flown Route
Filed Route
Departure Airport
Arrival Airport
Navaid (VOR, NDB)
Fix

Horizontal Profiles

Position Reports

Time Latitude Longitude Heading Altitude Ground
Speed
18-Nov-23 11:44 38.216005 -122.273291 244 34ft 0kts
18-Nov-23 11:45 38.216005 -122.273291 244 34ft 0kts
18-Nov-23 11:46 38.216005 -122.273291 244 34ft 0kts
18-Nov-23 11:47 38.216005 -122.273291 244 34ft 0kts
18-Nov-23 11:48 38.216005 -122.273291 244 34ft 0kts
18-Nov-23 11:49 38.216005 -122.273291 244 34ft 0kts
18-Nov-23 11:50 38.216005 -122.273291 244 34ft 0kts
18-Nov-23 11:51 38.216005 -122.273291 244 34ft 0kts
18-Nov-23 11:52 38.216005 -122.273291 244 34ft 0kts
18-Nov-23 11:53 38.216005 -122.273291 244 34ft 0kts
18-Nov-23 11:54 38.216005 -122.273291 244 34ft 0kts
18-Nov-23 11:55 38.216005 -122.273291 244 34ft 0kts
18-Nov-23 11:56 38.216005 -122.273291 244 34ft 0kts
18-Nov-23 11:57 38.216005 -122.273291 244 34ft 0kts
18-Nov-23 11:58 38.216005 -122.273291 244 34ft 0kts
18-Nov-23 11:59 38.216005 -122.273291 244 34ft 0kts
18-Nov-23 12:00 38.216005 -122.273291 244 34ft 0kts
18-Nov-23 12:01 38.216005 -122.273291 244 34ft 0kts
18-Nov-23 12:02 38.216005 -122.273291 244 34ft 0kts
18-Nov-23 12:03 38.216005 -122.273291 244 34ft 0kts
18-Nov-23 12:04 38.216005 -122.273291 244 34ft 0kts
18-Nov-23 12:05 38.216005 -122.273291 244 34ft 0kts
18-Nov-23 12:06 38.216005 -122.273291 244 34ft 0kts
18-Nov-23 12:07 38.216005 -122.273291 244 34ft 0kts
18-Nov-23 12:08 38.216005 -122.273291 244 34ft 0kts
18-Nov-23 12:09 38.216005 -122.273291 244 34ft 0kts
18-Nov-23 12:10 38.216005 -122.273291 244 34ft 0kts
18-Nov-23 12:11 38.216005 -122.273291 244 34ft 0kts
18-Nov-23 12:12 38.216005 -122.273291 244 34ft 0kts
18-Nov-23 12:13 38.216005 -122.273292 244 34ft 0kts
18-Nov-23 12:14 38.216004 -122.273294 244 34ft 0kts
18-Nov-23 12:15 38.219528 -122.276383 334 28ft 6kts
18-Nov-23 12:16 38.222848 -122.276985 290 27ft 0kts
18-Nov-23 12:17 38.222919 -122.277256 288 27ft 7kts
18-Nov-23 12:18 38.222726 -122.278218 201 27ft 0kts
18-Nov-23 12:19 38.194745 -122.308711 266 2828ft 223kts
18-Nov-23 12:20 38.252254 -122.335937 32 4984ft 289kts
18-Nov-23 12:21 38.281322 -122.249024 73 7023ft 300kts
18-Nov-23 12:23 38.304799 -122.153542 75 13238ft 291kts
18-Nov-23 12:24 38.324260 -122.070362 74 16960ft 308kts
18-Nov-23 12:25 38.348101 -121.967600 73 20456ft 329kts
18-Nov-23 12:26 38.363889 -121.899249 73 21580ft 370kts
18-Nov-23 12:27 38.389368 -121.788237 72 24674ft 382kts
18-Nov-23 12:28 38.403269 -121.727872 72 26400ft 383kts
18-Nov-23 12:29 38.408974 -121.702946 72 26998ft 387kts
18-Nov-23 12:30 38.431516 -121.604094 72 26935ft 389kts
18-Nov-23 12:31 38.460765 -121.473027 73 26920ft 387kts
18-Nov-23 12:32 38.518762 -121.339249 36 26905ft 375kts
18-Nov-23 12:33 38.599430 -121.247476 37 26863ft 399kts
18-Nov-23 12:34 38.678264 -121.156610 38 26725ft 400kts
18-Nov-23 12:35 38.710289 -121.119548 38 26594ft 399kts
18-Nov-23 12:36 38.756586 -121.065894 38 26398ft 393kts
18-Nov-23 12:37 38.828074 -120.979350 33 25569ft 295kts
18-Nov-23 12:38 38.859331 -120.945533 35 24475ft 317kts
18-Nov-23 12:39 38.898071 -120.901320 37 23754ft 317kts
18-Nov-23 12:40 38.947169 -120.844185 38 22923ft 312kts
18-Nov-23 12:41 38.993937 -120.789590 39 21508ft 328kts
18-Nov-23 12:42 39.026093 -120.751891 39 20556ft 333kts
18-Nov-23 12:43 39.085586 -120.682044 40 19032ft 336kts
18-Nov-23 12:44 39.157960 -120.596780 41 17125ft 336kts
18-Nov-23 12:45 39.209248 -120.536238 41 16043ft 326kts
18-Nov-23 12:46 39.253750 -120.483553 40 16139ft 342kts
18-Nov-23 12:47 39.363387 -120.353509 41 16086ft 348kts
18-Nov-23 12:48 39.525476 -120.158800 42 16070ft 347kts
18-Nov-23 12:48 39.613133 -120.052953 42 16053ft 341kts
18-Nov-23 12:50 39.691308 -119.957559 52 14646ft 321kts
18-Nov-23 12:51 39.703596 -119.849201 93 13018ft 314kts
18-Nov-23 12:52 39.707439 -119.735803 95 10899ft 324kts
18-Nov-23 12:52 39.725251 -119.643358 43 8727ft 345kts
18-Nov-23 12:53 39.796110 -119.661234 280 7527ft 276kts
18-Nov-23 12:55 39.753979 -119.740885 201 7529ft 242kts
18-Nov-23 12:56 39.692336 -119.767203 187 7501ft 220kts
18-Nov-23 12:56 39.648511 -119.769275 180 7204ft 158kts
18-Nov-23 12:57 39.607659 -119.769072 180 6379ft 141kts
18-Nov-23 12:58 39.568294 -119.769212 181 5603ft 142kts
18-Nov-23 13:00 39.520811 -119.769435 181 4767ft 154kts
18-Nov-23 13:00 39.495423 -119.769045 196 4407ft 24kts
18-Nov-23 13:01 39.492743 -119.770201 239 4409ft 0kts
18-Nov-23 13:02 39.492486 -119.770942 272 4411ft 3kts
18-Nov-23 13:03 39.492745 -119.772920 279 4411ft 4kts
18-Nov-23 13:04 39.492843 -119.772918 74 4411ft 0kts
18-Nov-23 13:05 39.492843 -119.772919 74 4411ft 0kts
18-Nov-23 13:06 39.492843 -119.772919 74 4411ft 0kts
18-Nov-23 13:07 39.492843 -119.772919 74 4411ft 0kts
18-Nov-23 13:08 39.492843 -119.772919 74 4411ft 0kts
18-Nov-23 13:09 39.492843 -119.772919 74 4411ft 0kts
18-Nov-23 13:10 39.492843 -119.772919 74 4411ft 0kts
18-Nov-23 13:11 39.492843 -119.772919 74 4411ft 0kts

Navigation Log

Ident Type
Flight plan parsing failed, navigation log unavailable